createdAt,value
2023-05-05T00:01:09.287Z,91834.69
2023-05-05T00:03:36.380Z,91834.41
2023-05-05T00:06:03.182Z,91836.91
2023-05-05T00:08:29.976Z,91836.13
2023-05-05T00:10:57.630Z,91833.03
2023-05-05T00:13:24.626Z,91837.97
2023-05-05T00:15:52.124Z,91827.78
2023-05-05T00:18:18.830Z,91827.69
2023-05-05T00:20:47.146Z,91831.78
2023-05-05T00:23:17.294Z,91820.06
2023-05-05T00:25:43.970Z,91819.28
2023-05-05T00:28:10.621Z,91821.94
2023-05-05T00:30:37.577Z,91830.19
2023-05-05T00:33:04.381Z,91837.97
2023-05-05T00:35:31.189Z,91833.66
2023-05-05T00:37:58.307Z,91834.66
2023-05-05T00:40:25.329Z,91838.72
2023-05-05T00:42:52.418Z,91841.06
2023-05-05T00:45:20.164Z,91839.38
2023-05-05T00:47:49.325Z,91837.19
2023-05-05T00:50:26.834Z,91837.41
2023-05-05T00:52:56.773Z,91837.00
2023-05-05T00:55:23.541Z,91845.44
2023-05-05T00:57:50.452Z,91830.78
2023-05-05T01:00:17.918Z,91832.56
2023-05-05T01:02:44.926Z,91833.78
2023-05-05T01:05:13.252Z,91829.25
2023-05-05T01:08:19.630Z,91843.50
2023-05-05T01:10:49.132Z,91832.72
2023-05-05T01:14:01.431Z,91835.56
2023-05-05T01:16:29.375Z,91833.41
2023-05-05T01:19:08.007Z,91830.00
2023-05-05T01:21:46.982Z,91829.53
2023-05-05T01:24:22.662Z,91827.00
2023-05-05T01:27:07.777Z,91825.06
2023-05-05T01:29:40.391Z,91824.56
2023-05-05T01:32:11.158Z,91822.41
2023-05-05T01:34:42.109Z,91811.53
2023-05-05T01:37:18.607Z,91813.69
2023-05-05T01:39:45.312Z,91820.50
2023-05-05T01:42:15.176Z,91813.31
2023-05-05T01:44:43.536Z,91808.81
2023-05-05T01:47:15.107Z,91809.47
2023-05-05T01:49:43.225Z,91805.31
2023-05-05T01:52:09.886Z,91806.97
2023-05-05T01:54:36.549Z,91813.56
2023-05-05T01:57:04.844Z,91815.78
2023-05-05T01:59:32.354Z,91804.72
2023-05-05T02:02:00.285Z,91804.16
2023-05-05T02:04:27.300Z,91797.94
2023-05-05T02:06:54.194Z,91796.41
2023-05-05T02:09:20.960Z,91800.47
2023-05-05T02:11:47.645Z,91795.03
2023-05-05T02:14:14.225Z,91800.66
2023-05-05T02:16:41.354Z,91801.06
2023-05-05T02:19:08.068Z,91808.16
2023-05-05T02:21:34.880Z,91805.91
2023-05-05T02:24:01.800Z,91806.97
2023-05-05T02:26:28.510Z,91806.13
2023-05-05T02:29:02.069Z,91801.91
2023-05-05T02:31:28.897Z,91804.84
2023-05-05T02:33:56.336Z,91807.56
2023-05-05T02:36:23.567Z,91807.25
2023-05-05T02:38:56.207Z,91810.78
2023-05-05T02:41:22.914Z,91800.28
2023-05-05T02:43:50.082Z,91804.16
2023-05-05T02:46:17.707Z,91810.00
2023-05-05T02:48:44.896Z,91799.31
2023-05-05T02:51:11.628Z,91796.19
2023-05-05T02:53:38.315Z,91794.47
2023-05-05T02:56:22.505Z,91786.47
2023-05-05T02:58:53.131Z,91789.78
2023-05-05T03:01:53.348Z,91793.00
2023-05-05T03:04:30.100Z,91791.75
2023-05-05T03:06:58.862Z,91794.84
2023-05-05T03:09:38.111Z,91795.91
2023-05-05T03:12:06.936Z,91789.41
2023-05-05T03:14:36.502Z,91779.88
2023-05-05T03:17:03.405Z,91791.53
2023-05-05T03:19:30.078Z,91792.50
2023-05-05T03:21:56.699Z,91807.25
2023-05-05T03:24:23.346Z,91799.50
2023-05-05T03:26:50.032Z,91793.19
2023-05-05T03:29:17.252Z,91803.50
2023-05-05T03:31:44.056Z,91799.19
2023-05-05T03:34:10.767Z,91803.00
2023-05-05T03:36:38.194Z,91807.06
2023-05-05T03:39:04.949Z,91803.88
2023-05-05T03:41:31.631Z,91805.31
2023-05-05T03:43:58.228Z,91813.69
2023-05-05T03:46:25.092Z,91811.34
2023-05-05T03:48:51.863Z,91815.25
2023-05-05T03:51:18.541Z,91822.63
2023-05-05T03:53:45.260Z,91821.47
2023-05-05T03:56:11.946Z,91817.97
2023-05-05T03:58:38.661Z,91816.22
2023-05-05T04:01:05.443Z,91814.66
2023-05-05T04:03:32.390Z,91812.53
2023-05-05T04:05:59.261Z,91814.38
2023-05-05T04:08:25.870Z,91814.84
2023-05-05T04:10:52.640Z,91818.03
2023-05-05T04:13:19.424Z,91817.56
2023-05-05T04:15:46.579Z,91824.38
2023-05-05T04:18:13.236Z,91820.50
2023-05-05T04:20:39.892Z,91818.16
2023-05-05T04:23:06.573Z,91825.72
2023-05-05T04:25:33.316Z,91817.38
2023-05-05T04:27:59.994Z,91819.53
2023-05-05T04:30:26.780Z,91827.38
2023-05-05T04:32:53.621Z,91827.88
2023-05-05T04:35:20.461Z,91833.69
2023-05-05T04:37:47.203Z,91834.88
2023-05-05T04:40:13.889Z,91831.75
2023-05-05T04:42:40.528Z,91828.25
2023-05-05T04:45:08.575Z,91832.91
2023-05-05T04:47:39.094Z,91843.22
2023-05-05T04:50:07.295Z,91837.19
2023-05-05T04:52:34.238Z,91838.34
2023-05-05T04:55:01.303Z,91838.19
2023-05-05T04:57:28.072Z,91837.59
2023-05-05T04:59:54.794Z,91841.47
2023-05-05T05:02:21.658Z,91840.69
2023-05-05T05:04:48.404Z,91842.81
2023-05-05T05:07:15.177Z,91841.06
2023-05-05T05:09:41.905Z,91845.91
2023-05-05T05:12:09.691Z,91835.41
2023-05-05T05:14:39.457Z,91839.81
2023-05-05T05:17:06.426Z,91841.50
2023-05-05T05:19:33.113Z,91838.41
2023-05-05T05:21:59.720Z,91842.56
2023-05-05T05:24:26.514Z,91848.63
2023-05-05T05:26:53.177Z,91834.25
2023-05-05T05:29:20.457Z,91841.16
2023-05-05T05:31:47.215Z,91840.44
2023-05-05T05:34:13.832Z,91842.00
2023-05-05T05:36:40.685Z,91832.69
2023-05-05T05:39:07.406Z,91841.75
2023-05-05T05:41:34.080Z,91845.88
2023-05-05T05:44:00.760Z,91851.28
2023-05-05T05:46:27.580Z,91845.97
2023-05-05T05:48:54.403Z,91855.34
2023-05-05T05:51:21.140Z,91844.81
2023-05-05T05:53:47.941Z,91848.69
2023-05-05T05:56:14.572Z,91848.91
2023-05-05T05:58:42.419Z,91849.56
2023-05-05T06:01:09.160Z,91852.69
2023-05-05T06:03:36.229Z,91850.78
2023-05-05T06:06:02.954Z,91853.94
2023-05-05T06:08:29.631Z,91841.38
2023-05-05T06:10:56.299Z,91850.84
2023-05-05T06:13:23.062Z,91850.72
2023-05-05T06:15:49.861Z,91852.31
2023-05-05T06:18:16.692Z,91863.91
2023-05-05T06:20:46.427Z,91860.88
2023-05-05T06:23:13.149Z,91868.47
2023-05-05T06:25:39.885Z,91864.19
2023-05-05T06:28:07.275Z,91868.09
2023-05-05T06:30:34.214Z,91859.09
2023-05-05T06:33:00.967Z,91868.25
2023-05-05T06:35:27.660Z,91871.00
2023-05-05T06:37:54.418Z,91870.09
2023-05-05T06:40:21.500Z,91866.38
2023-05-05T06:42:48.192Z,91862.38
2023-05-05T06:45:15.239Z,91871.81
2023-05-05T06:47:42.413Z,91856.34
2023-05-05T06:50:09.559Z,91864.25
2023-05-05T06:52:36.457Z,91863.78
2023-05-05T06:55:03.890Z,91874.63
2023-05-05T06:57:30.593Z,91875.56
2023-05-05T06:59:57.289Z,91875.69
2023-05-05T07:02:25.982Z,91870.00
2023-05-05T07:04:55.728Z,91873.34
2023-05-05T07:07:22.694Z,91867.94
2023-05-05T07:09:49.468Z,91870.59
2023-05-05T07:12:16.105Z,91868.50
2023-05-05T07:14:42.770Z,91874.75
2023-05-05T07:17:09.405Z,91876.47
2023-05-05T07:19:36.181Z,91868.09
2023-05-05T07:22:02.794Z,91864.88
2023-05-05T07:24:29.531Z,91859.34
2023-05-05T07:26:56.244Z,91861.28
2023-05-05T07:29:22.957Z,91863.59
2023-05-05T07:31:49.721Z,91855.97
2023-05-05T07:34:16.353Z,91859.16
2023-05-05T07:36:43.065Z,91860.81
2023-05-05T07:39:09.822Z,91864.94
2023-05-05T07:41:36.545Z,91855.28
2023-05-05T07:44:03.187Z,91859.16
2023-05-05T07:46:29.941Z,91859.13
2023-05-05T07:48:56.564Z,91863.22
2023-05-05T07:51:23.218Z,91852.47
2023-05-05T07:53:49.870Z,91854.56
2023-05-05T07:56:16.507Z,91865.69
2023-05-05T07:58:43.261Z,91866.31
2023-05-05T08:01:11.332Z,91862.41
2023-05-05T08:03:38.483Z,91859.97
2023-05-05T08:06:10.343Z,91865.31
2023-05-05T08:08:37.127Z,91860.66
2023-05-05T08:11:03.952Z,91857.00
2023-05-05T08:13:30.674Z,91862.75
2023-05-05T08:15:57.461Z,91857.97
2023-05-05T08:18:24.691Z,91860.19
2023-05-05T08:20:52.007Z,91865.31
2023-05-05T08:23:19.031Z,91866.50
2023-05-05T08:25:45.715Z,91858.66
2023-05-05T08:28:12.279Z,91854.72
2023-05-05T08:30:39.238Z,91842.28
2023-05-05T08:33:06.146Z,91852.59
2023-05-05T08:35:32.862Z,91851.16
2023-05-05T08:37:59.479Z,91846.19
2023-05-05T08:40:29.876Z,91849.53
2023-05-05T08:42:56.591Z,91842.06
2023-05-05T08:45:23.256Z,91837.25
2023-05-05T08:47:49.940Z,91844.44
2023-05-05T08:50:16.597Z,91836.03
2023-05-05T08:52:44.509Z,91827.28
2023-05-05T08:55:24.488Z,91833.88
2023-05-05T08:57:56.480Z,91827.16
2023-05-05T09:00:23.554Z,91839.66
2023-05-05T09:02:50.436Z,91840.16
2023-05-05T09:05:17.442Z,91836.63
2023-05-05T09:07:44.293Z,91834.56
2023-05-05T09:10:11.603Z,91832.22
2023-05-05T09:12:42.081Z,91820.66
2023-05-05T09:15:13.274Z,91819.19
2023-05-05T09:17:40.179Z,91822.94
2023-05-05T09:20:11.202Z,91818.84
2023-05-05T09:22:44.994Z,91816.00
2023-05-05T09:25:15.682Z,91814.22
2023-05-05T09:27:47.210Z,91813.88
2023-05-05T09:30:31.997Z,91806.47
2023-05-05T09:32:58.827Z,91804.53
2023-05-05T09:35:26.399Z,91809.94
2023-05-05T09:37:53.101Z,91800.22
2023-05-05T09:40:21.353Z,91806.91
2023-05-05T09:42:48.355Z,91818.03
2023-05-05T09:45:18.077Z,91811.56
2023-05-05T09:47:45.817Z,91803.16
2023-05-05T09:50:15.915Z,91801.59
2023-05-05T09:52:46.207Z,91797.66
2023-05-05T09:55:19.565Z,91801.69
2023-05-05T09:57:47.516Z,91798.81
2023-05-05T10:00:14.735Z,91786.59
2023-05-05T10:02:41.979Z,91785.88
2023-05-05T10:05:13.433Z,91783.94
2023-05-05T10:07:42.002Z,91791.00
2023-05-05T10:10:13.369Z,91784.75
2023-05-05T10:12:40.189Z,91786.69
2023-05-05T10:15:07.928Z,91779.44
2023-05-05T10:18:05.989Z,91778.06
2023-05-05T10:20:33.855Z,91783.25
2023-05-05T10:23:00.505Z,91784.06
2023-05-05T10:25:33.533Z,91778.50
2023-05-05T10:28:01.018Z,91778.97
2023-05-05T10:30:31.505Z,91778.06
2023-05-05T10:35:40.913Z,91766.16
2023-05-05T10:38:08.669Z,91769.09
2023-05-05T10:40:35.395Z,91767.06
2023-05-05T10:43:02.021Z,91765.06
2023-05-05T10:45:29.060Z,91768.19
2023-05-05T10:47:57.257Z,91773.00
2023-05-05T10:50:33.069Z,91770.03
2023-05-05T10:53:20.884Z,91759.91
2023-05-05T10:56:08.788Z,91763.53
2023-05-05T10:58:55.356Z,91758.44
2023-05-05T11:01:36.244Z,91750.13
2023-05-05T11:04:21.907Z,91773.00
2023-05-05T11:07:11.060Z,91765.19
2023-05-05T11:09:57.186Z,91754.81
2023-05-05T11:12:23.899Z,91755.38
2023-05-05T11:15:27.518Z,91752.25
2023-05-05T11:18:01.933Z,91749.69
2023-05-05T11:20:36.061Z,91745.22
2023-05-05T11:23:02.786Z,91740.28
2023-05-05T11:25:36.157Z,91747.38
2023-05-05T11:28:06.904Z,91745.13
2023-05-05T11:30:33.862Z,91738.44
2023-05-05T11:33:23.121Z,91735.41
2023-05-05T11:35:59.042Z,91737.66
2023-05-05T11:38:41.764Z,91736.53
2023-05-05T11:41:32.000Z,91736.19
2023-05-05T11:44:18.548Z,91723.47
2023-05-05T11:46:51.175Z,91732.66
2023-05-05T11:49:37.175Z,91722.78
2023-05-05T11:52:04.557Z,91730.38
2023-05-05T11:54:31.536Z,91726.63
2023-05-05T11:56:59.326Z,91732.38
2023-05-05T11:59:26.144Z,91726.66
2023-05-05T12:01:52.831Z,91729.50
2023-05-05T12:04:19.707Z,91724.28
2023-05-05T12:06:46.422Z,91720.09
2023-05-05T12:09:19.590Z,91710.13
2023-05-05T12:11:49.673Z,91715.16
2023-05-05T12:14:16.366Z,91713.31
2023-05-05T12:17:01.406Z,91693.50
2023-05-05T12:19:30.416Z,91694.03
2023-05-05T12:21:57.197Z,91709.75
2023-05-05T12:24:23.782Z,91699.31
2023-05-05T12:26:50.651Z,91697.44
2023-05-05T12:29:27.733Z,91699.69
2023-05-05T12:31:54.605Z,91697.72
2023-05-05T12:34:21.395Z,91683.97
2023-05-05T12:36:48.031Z,91686.81
2023-05-05T12:39:14.750Z,91681.25
2023-05-05T12:41:41.390Z,91677.84
2023-05-05T12:44:08.007Z,91678.06
2023-05-05T12:46:47.190Z,91668.66
2023-05-05T12:49:14.061Z,91673.44
2023-05-05T12:51:55.559Z,91674.09
2023-05-05T12:54:24.379Z,91682.34
2023-05-05T12:56:51.311Z,91674.88
2023-05-05T12:59:20.988Z,91673.09
2023-05-05T13:01:55.056Z,91688.69
2023-05-05T13:04:23.211Z,91672.03
2023-05-05T13:06:54.052Z,91672.06
2023-05-05T13:09:30.460Z,91660.88
2023-05-05T13:11:57.884Z,91663.16
2023-05-05T13:14:24.525Z,91665.53
2023-05-05T13:16:51.303Z,91654.94
2023-05-05T13:19:17.993Z,91656.47
2023-05-05T13:21:44.625Z,91644.41
2023-05-05T13:24:22.979Z,91642.09
2023-05-05T13:26:55.901Z,91649.41
2023-05-05T13:29:24.327Z,91644.69
2023-05-05T13:31:54.018Z,91645.28
2023-05-05T13:34:20.770Z,91642.47
2023-05-05T13:36:47.449Z,91651.06
2023-05-05T13:39:14.384Z,91651.00
2023-05-05T13:41:41.048Z,91646.84
2023-05-05T13:44:07.724Z,91645.41
2023-05-05T13:46:34.560Z,91649.19
2023-05-05T13:49:01.281Z,91644.63
2023-05-05T13:51:27.909Z,91644.28
2023-05-05T13:53:56.707Z,91649.47
2023-05-05T13:56:26.205Z,91648.53
2023-05-05T13:58:53.294Z,91629.56
2023-05-05T14:01:20.237Z,91648.88
2023-05-05T14:03:47.057Z,91646.81
2023-05-05T14:06:13.722Z,91634.94
2023-05-05T14:08:40.454Z,91631.22
2023-05-05T14:11:07.136Z,91630.50
2023-05-05T14:13:33.810Z,91628.84
2023-05-05T14:16:00.597Z,91629.78
2023-05-05T14:18:28.144Z,91626.88
2023-05-05T14:20:54.879Z,91634.03
2023-05-05T14:23:21.673Z,91629.13
2023-05-05T14:25:48.387Z,91633.41
2023-05-05T14:28:15.016Z,91626.47
2023-05-05T14:30:42.085Z,91630.28
2023-05-05T14:33:08.719Z,91623.13
2023-05-05T14:35:35.400Z,91620.44
2023-05-05T14:38:01.975Z,91619.13
2023-05-05T14:40:30.320Z,91619.34
2023-05-05T14:42:57.745Z,91622.66
2023-05-05T14:45:24.555Z,91621.38
2023-05-05T14:47:51.218Z,91623.38
2023-05-05T14:50:17.878Z,91627.34
2023-05-05T14:52:44.758Z,91627.25
2023-05-05T14:55:11.750Z,91627.75
2023-05-05T14:57:38.938Z,91625.47
2023-05-05T15:00:07.098Z,91631.56
2023-05-05T15:02:34.011Z,91625.22
2023-05-05T15:05:00.880Z,91634.75
2023-05-05T15:07:30.723Z,91626.50
2023-05-05T15:09:57.512Z,91629.63
2023-05-05T15:12:24.341Z,91637.28
2023-05-05T15:14:51.001Z,91625.00
2023-05-05T15:17:17.757Z,91637.28
2023-05-05T15:19:44.450Z,91637.28
2023-05-05T15:22:11.144Z,91631.72
2023-05-05T15:24:38.062Z,91629.06
2023-05-05T15:27:04.830Z,91634.44
2023-05-05T15:29:31.643Z,91630.44
2023-05-05T15:31:58.457Z,91630.38
2023-05-05T15:34:26.209Z,91637.09
2023-05-05T15:36:52.844Z,91631.09
2023-05-05T15:39:19.667Z,91631.16
2023-05-05T15:41:46.328Z,91633.97
2023-05-05T15:44:12.940Z,91626.91
2023-05-05T15:46:39.847Z,91635.63
2023-05-05T15:49:06.672Z,91633.94
2023-05-05T15:51:33.348Z,91629.88
2023-05-05T15:54:00.353Z,91630.38
2023-05-05T15:56:27.602Z,91632.88
2023-05-05T15:58:54.413Z,91627.41
2023-05-05T16:01:21.172Z,91633.06
2023-05-05T16:03:47.894Z,91638.59
2023-05-05T16:06:14.526Z,91635.19
2023-05-05T16:08:41.228Z,91632.72
2023-05-05T16:11:07.938Z,91639.72
2023-05-05T16:13:34.683Z,91639.16
2023-05-05T16:16:01.514Z,91636.72
2023-05-05T16:18:28.217Z,91644.34
2023-05-05T16:20:54.878Z,91637.88
2023-05-05T16:23:21.597Z,91645.91
2023-05-05T16:25:48.196Z,91649.13
2023-05-05T16:28:14.773Z,91638.31
2023-05-05T16:30:42.998Z,91646.81
2023-05-05T16:33:09.930Z,91644.16
2023-05-05T16:35:36.671Z,91640.19
2023-05-05T16:38:03.340Z,91647.94
2023-05-05T16:40:29.981Z,91647.56
2023-05-05T16:42:56.576Z,91642.91
2023-05-05T16:45:24.351Z,91651.00
2023-05-05T16:47:51.374Z,91637.53
2023-05-05T16:50:18.121Z,91648.84
2023-05-05T16:52:44.711Z,91648.34
2023-05-05T16:55:11.621Z,91657.25
2023-05-05T16:57:38.509Z,91650.97
2023-05-05T17:00:09.309Z,91656.69
2023-05-05T17:02:36.214Z,91651.88
2023-05-05T17:05:03.167Z,91669.75
2023-05-05T17:07:29.913Z,91662.72
2023-05-05T17:09:56.611Z,91675.16
2023-05-05T17:12:23.329Z,91664.63
2023-05-05T17:14:50.062Z,91668.41
2023-05-05T17:17:16.981Z,91674.50
2023-05-05T17:19:44.884Z,91674.75
2023-05-05T17:22:11.528Z,91673.06
2023-05-05T17:24:38.198Z,91675.59
2023-05-05T17:27:04.904Z,91688.03
2023-05-05T17:29:32.767Z,91687.81
2023-05-05T17:31:59.454Z,91684.25
2023-05-05T17:34:26.270Z,91682.75
2023-05-05T17:36:52.912Z,91687.81
2023-05-05T17:39:19.657Z,91687.38
2023-05-05T17:41:46.448Z,91687.38
2023-05-05T17:44:13.115Z,91689.16
2023-05-05T17:46:40.398Z,91693.50
2023-05-05T17:49:07.094Z,91687.25
2023-05-05T17:51:33.741Z,91692.72
2023-05-05T17:54:00.401Z,91694.44
2023-05-05T17:56:27.048Z,91693.16
2023-05-05T17:58:53.821Z,91700.59
2023-05-05T18:01:24.185Z,91699.97
2023-05-05T18:03:50.988Z,91696.88
2023-05-05T18:06:17.829Z,91700.69
2023-05-05T18:08:44.852Z,91706.06
2023-05-05T18:11:11.565Z,91708.94
2023-05-05T18:13:38.892Z,91716.22
2023-05-05T18:16:06.192Z,91717.50
2023-05-05T18:18:32.996Z,91719.53
2023-05-05T18:20:59.687Z,91721.41
2023-05-05T18:23:26.790Z,91725.72
2023-05-05T18:25:53.461Z,91720.72
2023-05-05T18:28:20.559Z,91735.63
2023-05-05T18:30:47.263Z,91733.16
2023-05-05T18:33:14.044Z,91733.66
2023-05-05T18:35:40.960Z,91742.34
2023-05-05T18:38:07.698Z,91740.91
2023-05-05T18:40:34.386Z,91741.56
2023-05-05T18:43:01.018Z,91749.91
2023-05-05T18:45:27.790Z,91755.81
2023-05-05T18:47:54.577Z,91751.63
2023-05-05T18:50:21.317Z,91749.91
2023-05-05T18:52:48.030Z,91748.66
2023-05-05T18:55:14.749Z,91745.66
2023-05-05T18:57:41.356Z,91745.47
2023-05-05T19:00:09.194Z,91750.66
2023-05-05T19:02:35.916Z,91749.94
2023-05-05T19:05:03.790Z,91750.84
2023-05-05T19:07:35.441Z,91746.88
2023-05-05T19:10:03.928Z,91750.97
2023-05-05T19:12:30.746Z,91753.91
2023-05-05T19:14:57.461Z,91756.47
2023-05-05T19:17:24.348Z,91752.56
2023-05-05T19:19:51.107Z,91758.19
2023-05-05T19:22:17.836Z,91754.22
2023-05-05T19:24:44.515Z,91749.84
2023-05-05T19:27:15.515Z,91753.66
2023-05-05T19:29:43.191Z,91756.72
2023-05-05T19:32:09.927Z,91752.31
2023-05-05T19:34:36.664Z,91757.06
2023-05-05T19:37:03.322Z,91757.16
2023-05-05T19:39:29.964Z,91750.41
2023-05-05T19:41:56.631Z,91752.34
2023-05-05T19:44:23.851Z,91760.19
2023-05-05T19:46:50.693Z,91754.56
2023-05-05T19:49:17.398Z,91763.31
2023-05-05T19:51:46.349Z,91760.16
2023-05-05T19:54:13.196Z,91758.44
2023-05-05T19:56:40.485Z,91761.28
2023-05-05T19:59:07.222Z,91744.03
2023-05-05T20:01:34.962Z,91749.38
2023-05-05T20:04:03.170Z,91755.34
2023-05-05T20:06:29.811Z,91748.16
2023-05-05T20:08:56.441Z,91744.06
2023-05-05T20:11:23.130Z,91756.00
2023-05-05T20:13:49.965Z,91742.28
2023-05-05T20:16:16.703Z,91747.28
2023-05-05T20:18:43.724Z,91748.22
2023-05-05T20:21:10.383Z,91747.84
2023-05-05T20:23:37.303Z,91736.22
2023-05-05T20:26:03.928Z,91738.00
2023-05-05T20:28:31.698Z,91730.75
2023-05-05T20:30:58.473Z,91732.09
2023-05-05T20:33:25.362Z,91733.69
2023-05-05T20:35:52.071Z,91735.44
2023-05-05T20:38:18.707Z,91729.28
2023-05-05T20:40:45.686Z,91723.81
2023-05-05T20:43:12.325Z,91727.94
2023-05-05T20:45:39.020Z,91728.34
2023-05-05T20:48:07.429Z,91735.41
2023-05-05T20:50:34.155Z,91729.28
2023-05-05T20:53:00.836Z,91718.00
2023-05-05T20:55:27.513Z,91728.22
2023-05-05T20:57:54.725Z,91729.63
2023-05-05T21:00:21.525Z,91725.50
2023-05-05T21:02:48.279Z,91723.22
2023-05-05T21:05:15.006Z,91726.59
2023-05-05T21:07:41.681Z,91721.91
2023-05-05T21:10:08.970Z,91719.59
2023-05-05T21:12:35.992Z,91720.44
2023-05-05T21:15:02.796Z,91715.78
2023-05-05T21:17:29.555Z,91715.94
2023-05-05T21:19:56.919Z,91710.31
2023-05-05T21:22:23.653Z,91720.06
2023-05-05T21:24:50.333Z,91725.00
2023-05-05T21:27:17.038Z,91725.28
2023-05-05T21:29:43.716Z,91723.31
2023-05-05T21:32:11.167Z,91718.28
2023-05-05T21:34:38.286Z,91713.13
2023-05-05T21:37:05.189Z,91716.81
2023-05-05T21:39:33.116Z,91717.00
2023-05-05T21:42:00.548Z,91715.06
2023-05-05T21:44:28.292Z,91714.56
2023-05-05T21:46:55.463Z,91720.66
2023-05-05T21:49:22.246Z,91723.22
2023-05-05T21:51:48.907Z,91718.16
2023-05-05T21:54:15.877Z,91722.69
2023-05-05T21:56:42.737Z,91707.66
2023-05-05T21:59:09.441Z,91712.44
2023-05-05T22:01:36.917Z,91708.81
2023-05-05T22:04:03.930Z,91708.34
2023-05-05T22:06:30.660Z,91701.03
2023-05-05T22:08:57.288Z,91705.53
2023-05-05T22:11:24.132Z,91704.59
2023-05-05T22:13:50.788Z,91704.97
2023-05-05T22:16:17.749Z,91707.38
2023-05-05T22:18:44.492Z,91701.00
2023-05-05T22:21:11.097Z,91705.47
2023-05-05T22:23:39.065Z,91704.03
2023-05-05T22:26:05.767Z,91700.97
2023-05-05T22:28:32.532Z,91698.50
2023-05-05T22:30:59.184Z,91693.66
2023-05-05T22:33:25.897Z,91692.84
2023-05-05T22:35:53.275Z,91689.63
2023-05-05T22:38:19.954Z,91684.66
2023-05-05T22:40:46.620Z,91676.31
2023-05-05T22:43:13.204Z,91689.25
2023-05-05T22:45:39.833Z,91687.84
2023-05-05T22:48:06.529Z,91697.00
2023-05-05T22:50:33.257Z,91683.97
2023-05-05T22:52:59.983Z,91694.06
2023-05-05T22:55:27.333Z,91689.25
2023-05-05T22:57:54.021Z,91677.84
2023-05-05T23:00:20.621Z,91679.63
2023-05-05T23:02:47.467Z,91678.69
2023-05-05T23:05:14.150Z,91679.28
2023-05-05T23:07:40.963Z,91668.81
2023-05-05T23:10:08.042Z,91681.19
2023-05-05T23:12:34.757Z,91679.78
2023-05-05T23:15:01.394Z,91673.88
2023-05-05T23:17:28.069Z,91673.72
2023-05-05T23:19:54.880Z,91673.19
2023-05-05T23:22:21.549Z,91681.25
2023-05-05T23:24:48.175Z,91674.56
2023-05-05T23:27:14.886Z,91669.84
2023-05-05T23:29:41.649Z,91670.16
2023-05-05T23:32:08.356Z,91671.69
2023-05-05T23:34:35.038Z,91666.94
2023-05-05T23:37:02.510Z,91676.88
2023-05-05T23:39:30.615Z,91662.72
2023-05-05T23:41:57.590Z,91655.31
2023-05-05T23:44:24.242Z,91656.38
2023-05-05T23:46:51.097Z,91650.38
2023-05-05T23:49:17.806Z,91653.78
2023-05-05T23:51:44.528Z,91653.84
2023-05-05T23:54:11.180Z,91660.47
2023-05-05T23:56:37.934Z,91662.38
2023-05-05T23:59:05.504Z,91662.44
